sensor_id;sensor_type;location;lat;lon;timestamp;P1;durP1;ratioP1;P2;durP2;ratioP2
37051;SDS011;22964;52.272;13.356;2022-09-09T00:07:48;2.65;;;2.05;;
37051;SDS011;22964;52.272;13.356;2022-09-09T00:12:51;2.30;;;1.88;;
37051;SDS011;22964;52.272;13.356;2022-09-09T00:15:38;2.70;;;2.08;;
37051;SDS011;22964;52.272;13.356;2022-09-09T00:21:15;2.63;;;1.83;;
37051;SDS011;22964;52.272;13.356;2022-09-09T00:23:50;2.35;;;1.88;;
37051;SDS011;22964;52.272;13.356;2022-09-09T00:29:33;2.35;;;1.67;;
37051;SDS011;22964;52.272;13.356;2022-09-09T00:32:16;3.55;;;2.17;;
37051;SDS011;22964;52.272;13.356;2022-09-09T00:34:54;3.17;;;1.75;;
37051;SDS011;22964;52.272;13.356;2022-09-09T00:37:41;3.30;;;1.98;;
37051;SDS011;22964;52.272;13.356;2022-09-09T00:40:31;2.45;;;1.90;;
37051;SDS011;22964;52.272;13.356;2022-09-09T00:56:38;2.10;;;1.80;;
37051;SDS011;22964;52.272;13.356;2022-09-09T01:02:01;2.47;;;2.13;;
37051;SDS011;22964;52.272;13.356;2022-09-09T01:04:37;3.28;;;2.25;;
37051;SDS011;22964;52.272;13.356;2022-09-09T01:07:07;3.63;;;2.10;;
37051;SDS011;22964;52.272;13.356;2022-09-09T01:09:46;2.50;;;2.00;;
37051;SDS011;22964;52.272;13.356;2022-09-09T01:12:25;4.22;;;2.22;;
37051;SDS011;22964;52.272;13.356;2022-09-09T01:15:11;2.58;;;2.30;;
37051;SDS011;22964;52.272;13.356;2022-09-09T01:18:06;2.97;;;2.05;;
37051;SDS011;22964;52.272;13.356;2022-09-09T01:20:54;2.42;;;2.00;;
37051;SDS011;22964;52.272;13.356;2022-09-09T01:26:32;3.05;;;2.20;;
37051;SDS011;22964;52.272;13.356;2022-09-09T01:29:09;5.10;;;2.30;;
37051;SDS011;22964;52.272;13.356;2022-09-09T01:31:58;3.17;;;2.10;;
37051;SDS011;22964;52.272;13.356;2022-09-09T01:34:27;2.60;;;2.15;;
37051;SDS011;22964;52.272;13.356;2022-09-09T01:39:32;2.92;;;2.28;;
37051;SDS011;22964;52.272;13.356;2022-09-09T01:42:03;3.30;;;2.05;;
37051;SDS011;22964;52.272;13.356;2022-09-09T01:44:32;3.33;;;2.25;;
37051;SDS011;22964;52.272;13.356;2022-09-09T01:47:00;3.03;;;2.20;;
37051;SDS011;22964;52.272;13.356;2022-09-09T01:49:27;3.28;;;2.15;;
37051;SDS011;22964;52.272;13.356;2022-09-09T01:51:53;3.10;;;2.00;;
37051;SDS011;22964;52.272;13.356;2022-09-09T01:54:28;2.60;;;2.05;;
37051;SDS011;22964;52.272;13.356;2022-09-09T02:02:21;2.75;;;1.98;;
37051;SDS011;22964;52.272;13.356;2022-09-09T02:05:18;2.95;;;2.00;;
37051;SDS011;22964;52.272;13.356;2022-09-09T02:08:15;3.10;;;2.20;;
37051;SDS011;22964;52.272;13.356;2022-09-09T02:11:13;5.05;;;2.20;;
37051;SDS011;22964;52.272;13.356;2022-09-09T02:13:48;2.60;;;2.05;;
37051;SDS011;22964;52.272;13.356;2022-09-09T02:16:21;3.00;;;2.08;;
37051;SDS011;22964;52.272;13.356;2022-09-09T02:18:57;2.42;;;2.00;;
37051;SDS011;22964;52.272;13.356;2022-09-09T02:21:38;4.95;;;2.20;;
37051;SDS011;22964;52.272;13.356;2022-09-09T02:24:07;3.00;;;2.00;;
37051;SDS011;22964;52.272;13.356;2022-09-09T02:26:39;2.80;;;2.05;;
37051;SDS011;22964;52.272;13.356;2022-09-09T02:29:11;3.90;;;2.10;;
37051;SDS011;22964;52.272;13.356;2022-09-09T02:31:41;4.22;;;2.13;;
37051;SDS011;22964;52.272;13.356;2022-09-09T02:34:14;3.35;;;2.00;;
37051;SDS011;22964;52.272;13.356;2022-09-09T02:36:42;2.92;;;2.05;;
37051;SDS011;22964;52.272;13.356;2022-09-09T02:39:11;3.90;;;2.20;;
37051;SDS011;22964;52.272;13.356;2022-09-09T02:41:41;3.67;;;2.22;;
37051;SDS011;22964;52.272;13.356;2022-09-09T02:44:11;2.72;;;1.88;;
37051;SDS011;22964;52.272;13.356;2022-09-09T02:52:14;2.13;;;1.63;;
37051;SDS011;22964;52.272;13.356;2022-09-09T02:54:43;4.88;;;2.00;;
37051;SDS011;22964;52.272;13.356;2022-09-09T02:57:15;4.15;;;2.00;;
37051;SDS011;22964;52.272;13.356;2022-09-09T02:59:48;2.67;;;2.00;;
37051;SDS011;22964;52.272;13.356;2022-09-09T03:02:15;2.40;;;1.80;;
37051;SDS011;22964;52.272;13.356;2022-09-09T03:04:43;4.47;;;2.00;;
37051;SDS011;22964;52.272;13.356;2022-09-09T03:07:11;2.60;;;1.90;;
37051;SDS011;22964;52.272;13.356;2022-09-09T03:09:37;4.07;;;1.90;;
37051;SDS011;22964;52.272;13.356;2022-09-09T03:12:03;3.22;;;1.90;;
37051;SDS011;22964;52.272;13.356;2022-09-09T03:14:31;4.45;;;1.90;;
37051;SDS011;22964;52.272;13.356;2022-09-09T03:16:57;3.88;;;1.80;;
37051;SDS011;22964;52.272;13.356;2022-09-09T03:19:26;3.35;;;2.00;;
37051;SDS011;22964;52.272;13.356;2022-09-09T03:21:53;3.42;;;1.90;;
37051;SDS011;22964;52.272;13.356;2022-09-09T03:24:19;4.07;;;1.88;;
37051;SDS011;22964;52.272;13.356;2022-09-09T03:26:45;3.00;;;1.70;;
37051;SDS011;22964;52.272;13.356;2022-09-09T03:29:13;2.83;;;2.00;;
37051;SDS011;22964;52.272;13.356;2022-09-09T03:31:40;2.53;;;1.88;;
37051;SDS011;22964;52.272;13.356;2022-09-09T03:34:07;3.85;;;2.10;;
37051;SDS011;22964;52.272;13.356;2022-09-09T03:36:34;3.28;;;1.90;;
37051;SDS011;22964;52.272;13.356;2022-09-09T03:39:01;3.50;;;2.03;;
37051;SDS011;22964;52.272;13.356;2022-09-09T03:41:30;5.53;;;2.00;;
37051;SDS011;22964;52.272;13.356;2022-09-09T03:43:58;3.75;;;2.00;;
37051;SDS011;22964;52.272;13.356;2022-09-09T03:46:26;3.38;;;1.80;;
37051;SDS011;22964;52.272;13.356;2022-09-09T03:48:52;3.83;;;1.80;;
37051;SDS011;22964;52.272;13.356;2022-09-09T03:51:18;2.40;;;1.80;;
37051;SDS011;22964;52.272;13.356;2022-09-09T03:53:44;2.40;;;1.70;;
37051;SDS011;22964;52.272;13.356;2022-09-09T03:56:11;3.08;;;1.52;;
37051;SDS011;22964;52.272;13.356;2022-09-09T03:58:37;2.30;;;1.60;;
37051;SDS011;22964;52.272;13.356;2022-09-09T04:01:07;3.00;;;1.67;;
37051;SDS011;22964;52.272;13.356;2022-09-09T04:03:35;2.65;;;1.60;;
37051;SDS011;22964;52.272;13.356;2022-09-09T04:06:04;2.67;;;1.70;;
37051;SDS011;22964;52.272;13.356;2022-09-09T04:08:33;2.30;;;1.58;;
37051;SDS011;22964;52.272;13.356;2022-09-09T04:11:00;2.20;;;1.60;;
37051;SDS011;22964;52.272;13.356;2022-09-09T04:13:27;2.75;;;1.70;;
37051;SDS011;22964;52.272;13.356;2022-09-09T04:15:55;3.00;;;1.70;;
37051;SDS011;22964;52.272;13.356;2022-09-09T04:18:23;2.67;;;1.80;;
37051;SDS011;22964;52.272;13.356;2022-09-09T04:20:50;2.70;;;1.75;;
37051;SDS011;22964;52.272;13.356;2022-09-09T04:23:19;2.92;;;1.60;;
37051;SDS011;22964;52.272;13.356;2022-09-09T04:25:46;2.80;;;1.80;;
37051;SDS011;22964;52.272;13.356;2022-09-09T04:28:13;2.33;;;1.60;;
37051;SDS011;22964;52.272;13.356;2022-09-09T04:30:43;2.00;;;1.60;;
37051;SDS011;22964;52.272;13.356;2022-09-09T04:33:11;2.15;;;1.50;;
37051;SDS011;22964;52.272;13.356;2022-09-09T04:35:37;2.60;;;1.70;;
37051;SDS011;22964;52.272;13.356;2022-09-09T04:38:04;2.97;;;1.77;;
37051;SDS011;22964;52.272;13.356;2022-09-09T04:40:33;4.47;;;1.98;;
37051;SDS011;22964;52.272;13.356;2022-09-09T04:43:00;3.30;;;1.80;;
37051;SDS011;22964;52.272;13.356;2022-09-09T04:45:28;2.75;;;1.90;;
37051;SDS011;22964;52.272;13.356;2022-09-09T04:47:55;2.67;;;1.50;;
37051;SDS011;22964;52.272;13.356;2022-09-09T04:50:22;2.30;;;1.52;;
37051;SDS011;22964;52.272;13.356;2022-09-09T04:52:59;2.60;;;1.60;;
37051;SDS011;22964;52.272;13.356;2022-09-09T04:55:26;3.08;;;1.60;;
37051;SDS011;22964;52.272;13.356;2022-09-09T04:57:52;2.75;;;1.52;;
37051;SDS011;22964;52.272;13.356;2022-09-09T05:00:19;1.92;;;1.50;;
37051;SDS011;22964;52.272;13.356;2022-09-09T05:02:45;2.65;;;1.60;;
37051;SDS011;22964;52.272;13.356;2022-09-09T05:05:12;3.30;;;1.67;;
37051;SDS011;22964;52.272;13.356;2022-09-09T05:07:39;3.53;;;1.70;;
37051;SDS011;22964;52.272;13.356;2022-09-09T05:10:04;2.30;;;1.60;;
37051;SDS011;22964;52.272;13.356;2022-09-09T05:12:31;3.35;;;1.70;;
37051;SDS011;22964;52.272;13.356;2022-09-09T05:14:57;2.50;;;1.60;;
37051;SDS011;22964;52.272;13.356;2022-09-09T05:17:23;4.45;;;1.50;;
37051;SDS011;22964;52.272;13.356;2022-09-09T05:19:49;4.20;;;1.70;;
37051;SDS011;22964;52.272;13.356;2022-09-09T05:22:18;3.33;;;1.60;;
37051;SDS011;22964;52.272;13.356;2022-09-09T05:24:45;3.55;;;1.35;;
37051;SDS011;22964;52.272;13.356;2022-09-09T05:27:11;2.75;;;1.33;;
37051;SDS011;22964;52.272;13.356;2022-09-09T05:29:38;2.90;;;1.40;;
37051;SDS011;22964;52.272;13.356;2022-09-09T05:32:07;6.90;;;2.00;;
37051;SDS011;22964;52.272;13.356;2022-09-09T05:34:34;2.25;;;1.50;;
37051;SDS011;22964;52.272;13.356;2022-09-09T05:37:00;2.97;;;1.40;;
37051;SDS011;22964;52.272;13.356;2022-09-09T05:39:26;2.63;;;1.45;;
37051;SDS011;22964;52.272;13.356;2022-09-09T05:41:52;2.92;;;1.40;;
37051;SDS011;22964;52.272;13.356;2022-09-09T05:44:18;4.90;;;1.60;;
37051;SDS011;22964;52.272;13.356;2022-09-09T05:46:45;2.97;;;1.60;;
37051;SDS011;22964;52.272;13.356;2022-09-09T05:49:12;3.97;;;1.60;;
37051;SDS011;22964;52.272;13.356;2022-09-09T05:51:39;2.65;;;1.80;;
37051;SDS011;22964;52.272;13.356;2022-09-09T05:54:10;3.22;;;1.67;;
37051;SDS011;22964;52.272;13.356;2022-09-09T05:56:41;3.80;;;1.30;;
37051;SDS011;22964;52.272;13.356;2022-09-09T05:59:08;3.72;;;1.50;;
37051;SDS011;22964;52.272;13.356;2022-09-09T06:01:35;3.28;;;1.70;;
37051;SDS011;22964;52.272;13.356;2022-09-09T06:04:06;2.10;;;1.50;;
37051;SDS011;22964;52.272;13.356;2022-09-09T06:06:36;2.28;;;1.60;;
37051;SDS011;22964;52.272;13.356;2022-09-09T06:09:09;3.35;;;1.70;;
37051;SDS011;22964;52.272;13.356;2022-09-09T06:11:38;4.07;;;1.40;;
37051;SDS011;22964;52.272;13.356;2022-09-09T06:14:05;2.65;;;1.50;;
37051;SDS011;22964;52.272;13.356;2022-09-09T06:16:31;1.92;;;1.45;;
37051;SDS011;22964;52.272;13.356;2022-09-09T06:18:58;3.13;;;1.70;;
37051;SDS011;22964;52.272;13.356;2022-09-09T06:21:28;2.67;;;1.50;;
37051;SDS011;22964;52.272;13.356;2022-09-09T06:24:00;5.38;;;1.50;;
37051;SDS011;22964;52.272;13.356;2022-09-09T06:26:30;2.13;;;1.30;;
37051;SDS011;22964;52.272;13.356;2022-09-09T06:29:02;4.13;;;1.42;;
37051;SDS011;22964;52.272;13.356;2022-09-09T06:31:29;3.13;;;1.55;;
37051;SDS011;22964;52.272;13.356;2022-09-09T06:34:04;3.10;;;1.40;;
37051;SDS011;22964;52.272;13.356;2022-09-09T06:36:33;3.22;;;1.50;;
37051;SDS011;22964;52.272;13.356;2022-09-09T06:39:02;4.45;;;1.80;;
37051;SDS011;22964;52.272;13.356;2022-09-09T06:41:31;2.10;;;1.42;;
37051;SDS011;22964;52.272;13.356;2022-09-09T06:43:58;3.33;;;1.60;;
37051;SDS011;22964;52.272;13.356;2022-09-09T06:46:32;4.82;;;1.58;;
37051;SDS011;22964;52.272;13.356;2022-09-09T06:49:01;3.20;;;1.40;;
37051;SDS011;22964;52.272;13.356;2022-09-09T06:51:28;2.85;;;1.42;;
37051;SDS011;22964;52.272;13.356;2022-09-09T06:53:57;2.33;;;1.40;;
37051;SDS011;22964;52.272;13.356;2022-09-09T06:58:55;5.25;;;1.60;;
37051;SDS011;22964;52.272;13.356;2022-09-09T07:01:27;3.37;;;1.50;;
37051;SDS011;22964;52.272;13.356;2022-09-09T07:03:57;3.90;;;1.60;;
37051;SDS011;22964;52.272;13.356;2022-09-09T07:06:27;3.40;;;1.40;;
37051;SDS011;22964;52.272;13.356;2022-09-09T07:09:00;2.40;;;1.45;;
37051;SDS011;22964;52.272;13.356;2022-09-09T07:11:37;2.13;;;1.38;;
37051;SDS011;22964;52.272;13.356;2022-09-09T07:14:09;3.03;;;1.45;;
37051;SDS011;22964;52.272;13.356;2022-09-09T07:16:42;6.20;;;1.63;;
37051;SDS011;22964;52.272;13.356;2022-09-09T07:19:10;3.67;;;1.60;;
37051;SDS011;22964;52.272;13.356;2022-09-09T07:21:38;5.43;;;1.50;;
37051;SDS011;22964;52.272;13.356;2022-09-09T07:24:05;6.15;;;1.50;;
37051;SDS011;22964;52.272;13.356;2022-09-09T07:26:37;2.80;;;1.55;;
37051;SDS011;22964;52.272;13.356;2022-09-09T07:29:05;2.90;;;1.70;;
37051;SDS011;22964;52.272;13.356;2022-09-09T07:31:32;2.30;;;1.33;;
37051;SDS011;22964;52.272;13.356;2022-09-09T07:34:01;3.38;;;1.40;;
37051;SDS011;22964;52.272;13.356;2022-09-09T07:36:28;4.13;;;1.48;;
37051;SDS011;22964;52.272;13.356;2022-09-09T07:38:57;2.25;;;1.45;;
37051;SDS011;22964;52.272;13.356;2022-09-09T07:41:29;2.85;;;1.40;;
37051;SDS011;22964;52.272;13.356;2022-09-09T07:43:59;4.20;;;1.40;;
37051;SDS011;22964;52.272;13.356;2022-09-09T07:46:28;3.65;;;1.30;;
37051;SDS011;22964;52.272;13.356;2022-09-09T07:48:55;3.03;;;1.50;;
37051;SDS011;22964;52.272;13.356;2022-09-09T07:51:27;4.13;;;1.40;;
37051;SDS011;22964;52.272;13.356;2022-09-09T07:53:56;2.38;;;1.30;;
37051;SDS011;22964;52.272;13.356;2022-09-09T07:56:25;2.47;;;1.30;;
37051;SDS011;22964;52.272;13.356;2022-09-09T07:58:52;2.08;;;1.20;;
37051;SDS011;22964;52.272;13.356;2022-09-09T08:01:24;2.40;;;1.48;;
37051;SDS011;22964;52.272;13.356;2022-09-09T08:06:42;2.22;;;1.15;;
37051;SDS011;22964;52.272;13.356;2022-09-09T08:09:32;2.20;;;1.10;;
37051;SDS011;22964;52.272;13.356;2022-09-09T08:12:08;1.95;;;1.23;;
37051;SDS011;22964;52.272;13.356;2022-09-09T08:14:34;4.82;;;1.40;;
37051;SDS011;22964;52.272;13.356;2022-09-09T08:17:00;4.05;;;1.42;;
37051;SDS011;22964;52.272;13.356;2022-09-09T08:19:27;3.83;;;1.30;;
37051;SDS011;22964;52.272;13.356;2022-09-09T08:21:55;2.80;;;1.20;;
37051;SDS011;22964;52.272;13.356;2022-09-09T08:24:21;2.25;;;1.02;;
37051;SDS011;22964;52.272;13.356;2022-09-09T08:26:48;4.55;;;1.48;;
37051;SDS011;22964;52.272;13.356;2022-09-09T08:29:17;2.75;;;1.33;;
37051;SDS011;22964;52.272;13.356;2022-09-09T08:34:15;2.60;;;1.30;;
37051;SDS011;22964;52.272;13.356;2022-09-09T08:36:42;3.17;;;1.40;;
37051;SDS011;22964;52.272;13.356;2022-09-09T08:39:11;2.63;;;1.33;;
37051;SDS011;22964;52.272;13.356;2022-09-09T08:44:55;2.83;;;1.27;;
37051;SDS011;22964;52.272;13.356;2022-09-09T08:47:40;3.38;;;1.25;;
37051;SDS011;22964;52.272;13.356;2022-09-09T08:50:16;2.75;;;1.15;;
37051;SDS011;22964;52.272;13.356;2022-09-09T08:53:01;2.90;;;1.20;;
37051;SDS011;22964;52.272;13.356;2022-09-09T08:58:10;2.78;;;1.20;;
37051;SDS011;22964;52.272;13.356;2022-09-09T09:03:22;2.45;;;1.20;;
37051;SDS011;22964;52.272;13.356;2022-09-09T09:08:52;4.32;;;1.23;;
37051;SDS011;22964;52.272;13.356;2022-09-09T09:11:25;2.28;;;1.08;;
37051;SDS011;22964;52.272;13.356;2022-09-09T09:13:55;2.15;;;1.05;;
37051;SDS011;22964;52.272;13.356;2022-09-09T09:16:34;2.97;;;1.17;;
37051;SDS011;22964;52.272;13.356;2022-09-09T09:19:04;2.42;;;1.17;;
37051;SDS011;22964;52.272;13.356;2022-09-09T09:21:41;1.30;;;1.00;;
37051;SDS011;22964;52.272;13.356;2022-09-09T09:24:19;2.55;;;1.20;;
37051;SDS011;22964;52.272;13.356;2022-09-09T09:26:49;2.15;;;1.10;;
37051;SDS011;22964;52.272;13.356;2022-09-09T09:29:17;2.85;;;1.10;;
37051;SDS011;22964;52.272;13.356;2022-09-09T09:31:45;1.55;;;0.95;;
37051;SDS011;22964;52.272;13.356;2022-09-09T09:34:24;3.00;;;1.00;;
37051;SDS011;22964;52.272;13.356;2022-09-09T09:36:58;2.60;;;1.02;;
37051;SDS011;22964;52.272;13.356;2022-09-09T09:39:32;3.40;;;1.10;;
37051;SDS011;22964;52.272;13.356;2022-09-09T09:42:15;2.72;;;1.08;;
37051;SDS011;22964;52.272;13.356;2022-09-09T09:44:45;1.75;;;0.95;;
37051;SDS011;22964;52.272;13.356;2022-09-09T09:47:19;2.28;;;1.05;;
37051;SDS011;22964;52.272;13.356;2022-09-09T09:49:57;2.30;;;0.93;;
37051;SDS011;22964;52.272;13.356;2022-09-09T09:52:26;1.95;;;0.93;;
37051;SDS011;22964;52.272;13.356;2022-09-09T09:54:54;1.50;;;0.82;;
37051;SDS011;22964;52.272;13.356;2022-09-09T09:57:26;1.33;;;1.00;;
37051;SDS011;22964;52.272;13.356;2022-09-09T10:00:01;3.28;;;1.20;;
37051;SDS011;22964;52.272;13.356;2022-09-09T10:02:40;2.03;;;0.85;;
37051;SDS011;22964;52.272;13.356;2022-09-09T10:05:21;1.52;;;0.82;;
37051;SDS011;22964;52.272;13.356;2022-09-09T10:10:47;6.55;;;1.08;;
37051;SDS011;22964;52.272;13.356;2022-09-09T10:13:15;1.95;;;0.90;;
37051;SDS011;22964;52.272;13.356;2022-09-09T10:15:59;2.35;;;0.80;;
37051;SDS011;22964;52.272;13.356;2022-09-09T10:24:26;2.75;;;1.10;;
37051;SDS011;22964;52.272;13.356;2022-09-09T10:32:42;2.58;;;1.00;;
37051;SDS011;22964;52.272;13.356;2022-09-09T10:35:29;1.80;;;0.90;;
37051;SDS011;22964;52.272;13.356;2022-09-09T10:46:14;1.40;;;0.80;;
37051;SDS011;22964;52.272;13.356;2022-09-09T10:56:36;1.25;;;0.77;;
37051;SDS011;22964;52.272;13.356;2022-09-09T10:59:07;1.67;;;0.85;;
37051;SDS011;22964;52.272;13.356;2022-09-09T11:07:10;1.75;;;0.63;;
37051;SDS011;22964;52.272;13.356;2022-09-09T11:09:48;1.07;;;0.73;;
37051;SDS011;22964;52.272;13.356;2022-09-09T11:12:27;1.10;;;0.63;;
37051;SDS011;22964;52.272;13.356;2022-09-09T11:15:03;2.53;;;0.80;;
37051;SDS011;22964;52.272;13.356;2022-09-09T11:17:52;2.80;;;0.90;;
37051;SDS011;22964;52.272;13.356;2022-09-09T11:20:21;5.20;;;1.13;;
37051;SDS011;22964;52.272;13.356;2022-09-09T11:25:28;2.42;;;0.90;;
37051;SDS011;22964;52.272;13.356;2022-09-09T11:28:15;1.92;;;0.80;;
37051;SDS011;22964;52.272;13.356;2022-09-09T11:33:23;1.90;;;0.60;;
37051;SDS011;22964;52.272;13.356;2022-09-09T11:39:04;1.90;;;0.82;;
37051;SDS011;22964;52.272;13.356;2022-09-09T11:42:06;2.17;;;0.80;;
37051;SDS011;22964;52.272;13.356;2022-09-09T11:44:32;2.42;;;1.10;;
37051;SDS011;22964;52.272;13.356;2022-09-09T11:46:58;2.30;;;1.00;;
37051;SDS011;22964;52.272;13.356;2022-09-09T11:49:28;1.50;;;0.77;;
37051;SDS011;22964;52.272;13.356;2022-09-09T11:52:39;1.90;;;0.80;;
37051;SDS011;22964;52.272;13.356;2022-09-09T11:58:29;1.50;;;0.70;;
37051;SDS011;22964;52.272;13.356;2022-09-09T12:00:48;3.17;;;0.80;;
37051;SDS011;22964;52.272;13.356;2022-09-09T12:06:11;1.75;;;0.80;;
37051;SDS011;22964;52.272;13.356;2022-09-09T12:08:44;1.63;;;0.60;;
37051;SDS011;22964;52.272;13.356;2022-09-09T12:11:29;1.85;;;1.00;;
37051;SDS011;22964;52.272;13.356;2022-09-09T12:13:56;1.88;;;0.70;;
37051;SDS011;22964;52.272;13.356;2022-09-09T12:19:41;1.42;;;0.80;;
37051;SDS011;22964;52.272;13.356;2022-09-09T12:21:51;2.85;;;0.75;;
37051;SDS011;22964;52.272;13.356;2022-09-09T12:24:31;5.28;;;0.70;;
37051;SDS011;22964;52.272;13.356;2022-09-09T12:27:07;2.07;;;0.73;;
37051;SDS011;22964;52.272;13.356;2022-09-09T12:29:45;1.83;;;0.63;;
37051;SDS011;22964;52.272;13.356;2022-09-09T12:32:35;2.17;;;0.60;;
37051;SDS011;22964;52.272;13.356;2022-09-09T12:35:12;5.25;;;0.80;;
37051;SDS011;22964;52.272;13.356;2022-09-09T12:37:49;1.92;;;0.55;;
37051;SDS011;22964;52.272;13.356;2022-09-09T12:40:25;1.70;;;0.68;;
37051;SDS011;22964;52.272;13.356;2022-09-09T12:42:53;1.88;;;0.75;;
37051;SDS011;22964;52.272;13.356;2022-09-09T12:45:21;2.40;;;0.82;;
37051;SDS011;22964;52.272;13.356;2022-09-09T12:50:27;1.70;;;0.90;;
37051;SDS011;22964;52.272;13.356;2022-09-09T12:52:57;0.98;;;0.70;;
37051;SDS011;22964;52.272;13.356;2022-09-09T12:55:30;2.95;;;0.90;;
37051;SDS011;22964;52.272;13.356;2022-09-09T12:57:58;1.23;;;0.60;;
37051;SDS011;22964;52.272;13.356;2022-09-09T13:00:26;2.17;;;0.80;;
37051;SDS011;22964;52.272;13.356;2022-09-09T13:02:54;3.22;;;0.88;;
37051;SDS011;22964;52.272;13.356;2022-09-09T13:05:26;1.60;;;0.70;;
37051;SDS011;22964;52.272;13.356;2022-09-09T13:08:03;2.58;;;0.60;;
37051;SDS011;22964;52.272;13.356;2022-09-09T13:10:32;3.78;;;0.73;;
37051;SDS011;22964;52.272;13.356;2022-09-09T13:13:03;1.25;;;0.60;;
37051;SDS011;22964;52.272;13.356;2022-09-09T13:15:36;1.52;;;0.50;;
37051;SDS011;22964;52.272;13.356;2022-09-09T13:18:03;2.88;;;1.00;;
37051;SDS011;22964;52.272;13.356;2022-09-09T13:20:33;1.17;;;0.80;;
37051;SDS011;22964;52.272;13.356;2022-09-09T13:22:59;1.33;;;0.68;;
37051;SDS011;22964;52.272;13.356;2022-09-09T13:25:26;1.85;;;0.70;;
37051;SDS011;22964;52.272;13.356;2022-09-09T13:35:45;2.17;;;0.70;;
37051;SDS011;22964;52.272;13.356;2022-09-09T13:38:25;2.22;;;0.80;;
37051;SDS011;22964;52.272;13.356;2022-09-09T13:40:55;2.05;;;0.80;;
37051;SDS011;22964;52.272;13.356;2022-09-09T13:43:22;3.30;;;0.85;;
37051;SDS011;22964;52.272;13.356;2022-09-09T13:45:54;3.65;;;0.80;;
37051;SDS011;22964;52.272;13.356;2022-09-09T13:48:21;1.90;;;0.70;;
37051;SDS011;22964;52.272;13.356;2022-09-09T13:50:58;1.50;;;0.90;;
37051;SDS011;22964;52.272;13.356;2022-09-09T13:53:25;2.00;;;0.80;;
37051;SDS011;22964;52.272;13.356;2022-09-09T13:55:52;2.75;;;0.70;;
37051;SDS011;22964;52.272;13.356;2022-09-09T13:58:18;1.30;;;0.57;;
37051;SDS011;22964;52.272;13.356;2022-09-09T14:00:45;1.73;;;0.75;;
37051;SDS011;22964;52.272;13.356;2022-09-09T14:03:11;0.95;;;0.40;;
37051;SDS011;22964;52.272;13.356;2022-09-09T14:05:37;1.38;;;0.60;;
37051;SDS011;22964;52.272;13.356;2022-09-09T14:08:04;1.65;;;0.50;;
37051;SDS011;22964;52.272;13.356;2022-09-09T14:10:31;1.63;;;0.50;;
37051;SDS011;22964;52.272;13.356;2022-09-09T14:12:56;2.28;;;0.50;;
37051;SDS011;22964;52.272;13.356;2022-09-09T14:15:22;0.88;;;0.50;;
37051;SDS011;22964;52.272;13.356;2022-09-09T14:17:48;0.73;;;0.50;;
37051;SDS011;22964;52.272;13.356;2022-09-09T14:20:14;0.77;;;0.50;;
37051;SDS011;22964;52.272;13.356;2022-09-09T14:22:42;1.95;;;0.40;;
37051;SDS011;22964;52.272;13.356;2022-09-09T14:25:09;0.95;;;0.50;;
37051;SDS011;22964;52.272;13.356;2022-09-09T14:27:34;1.33;;;0.50;;
37051;SDS011;22964;52.272;13.356;2022-09-09T14:30:00;0.47;;;0.40;;
37051;SDS011;22964;52.272;13.356;2022-09-09T14:32:26;1.00;;;0.47;;
37051;SDS011;22964;52.272;13.356;2022-09-09T14:34:52;3.15;;;0.60;;
37051;SDS011;22964;52.272;13.356;2022-09-09T14:37:18;2.03;;;0.50;;
37051;SDS011;22964;52.272;13.356;2022-09-09T14:39:44;1.55;;;0.50;;
37051;SDS011;22964;52.272;13.356;2022-09-09T14:42:10;2.35;;;0.60;;
37051;SDS011;22964;52.272;13.356;2022-09-09T14:44:36;0.65;;;0.60;;
37051;SDS011;22964;52.272;13.356;2022-09-09T14:47:04;1.25;;;0.60;;
37051;SDS011;22964;52.272;13.356;2022-09-09T14:49:30;1.38;;;0.55;;
37051;SDS011;22964;52.272;13.356;2022-09-09T14:51:56;1.63;;;0.70;;
37051;SDS011;22964;52.272;13.356;2022-09-09T14:54:22;3.28;;;0.70;;
37051;SDS011;22964;52.272;13.356;2022-09-09T14:56:48;4.32;;;0.75;;
37051;SDS011;22964;52.272;13.356;2022-09-09T14:59:14;4.80;;;0.70;;
37051;SDS011;22964;52.272;13.356;2022-09-09T15:01:39;0.85;;;0.52;;
37051;SDS011;22964;52.272;13.356;2022-09-09T15:04:06;1.33;;;0.60;;
37051;SDS011;22964;52.272;13.356;2022-09-09T15:06:33;1.77;;;0.60;;
37051;SDS011;22964;52.272;13.356;2022-09-09T15:09:01;1.83;;;0.75;;
37051;SDS011;22964;52.272;13.356;2022-09-09T15:11:28;2.53;;;0.80;;
37051;SDS011;22964;52.272;13.356;2022-09-09T15:13:55;1.40;;;0.70;;
37051;SDS011;22964;52.272;13.356;2022-09-09T15:16:22;1.38;;;0.60;;
37051;SDS011;22964;52.272;13.356;2022-09-09T15:18:53;1.80;;;0.70;;
37051;SDS011;22964;52.272;13.356;2022-09-09T15:21:22;2.70;;;1.30;;
37051;SDS011;22964;52.272;13.356;2022-09-09T15:23:49;0.98;;;0.70;;
37051;SDS011;22964;52.272;13.356;2022-09-09T15:26:16;4.43;;;2.35;;
37051;SDS011;22964;52.272;13.356;2022-09-09T15:28:43;3.00;;;2.00;;
37051;SDS011;22964;52.272;13.356;2022-09-09T15:31:14;6.97;;;4.53;;
37051;SDS011;22964;52.272;13.356;2022-09-09T15:33:50;2.95;;;1.63;;
37051;SDS011;22964;52.272;13.356;2022-09-09T15:36:26;2.03;;;0.90;;
37051;SDS011;22964;52.272;13.356;2022-09-09T15:39:00;1.70;;;0.75;;
37051;SDS011;22964;52.272;13.356;2022-09-09T15:41:27;2.38;;;0.73;;
37051;SDS011;22964;52.272;13.356;2022-09-09T15:43:54;1.70;;;0.82;;
37051;SDS011;22964;52.272;13.356;2022-09-09T15:46:25;3.15;;;0.80;;
37051;SDS011;22964;52.272;13.356;2022-09-09T15:48:55;1.45;;;0.73;;
37051;SDS011;22964;52.272;13.356;2022-09-09T15:51:32;1.58;;;0.73;;
37051;SDS011;22964;52.272;13.356;2022-09-09T15:53:58;3.03;;;1.10;;
37051;SDS011;22964;52.272;13.356;2022-09-09T15:56:25;1.52;;;0.95;;
37051;SDS011;22964;52.272;13.356;2022-09-09T15:58:52;1.65;;;0.82;;
37051;SDS011;22964;52.272;13.356;2022-09-09T16:01:19;2.97;;;1.10;;
37051;SDS011;22964;52.272;13.356;2022-09-09T16:03:45;4.57;;;2.42;;
37051;SDS011;22964;52.272;13.356;2022-09-09T16:06:12;4.53;;;1.50;;
37051;SDS011;22964;52.272;13.356;2022-09-09T16:08:40;2.42;;;1.10;;
37051;SDS011;22964;52.272;13.356;2022-09-09T16:11:12;3.05;;;1.02;;
37051;SDS011;22964;52.272;13.356;2022-09-09T16:13:42;2.15;;;1.10;;
37051;SDS011;22964;52.272;13.356;2022-09-09T16:16:10;1.95;;;0.95;;
37051;SDS011;22964;52.272;13.356;2022-09-09T16:18:44;1.90;;;1.00;;
37051;SDS011;22964;52.272;13.356;2022-09-09T16:21:16;2.25;;;0.80;;
37051;SDS011;22964;52.272;13.356;2022-09-09T16:23:46;2.30;;;0.82;;
37051;SDS011;22964;52.272;13.356;2022-09-09T16:26:14;2.38;;;0.88;;
37051;SDS011;22964;52.272;13.356;2022-09-09T16:28:41;2.63;;;0.77;;
37051;SDS011;22964;52.272;13.356;2022-09-09T16:31:07;2.83;;;0.90;;
37051;SDS011;22964;52.272;13.356;2022-09-09T16:33:35;2.42;;;0.95;;
37051;SDS011;22964;52.272;13.356;2022-09-09T16:36:05;2.60;;;1.15;;
37051;SDS011;22964;52.272;13.356;2022-09-09T16:38:32;2.13;;;1.10;;
37051;SDS011;22964;52.272;13.356;2022-09-09T16:40:59;2.40;;;0.90;;
37051;SDS011;22964;52.272;13.356;2022-09-09T16:43:25;0.98;;;0.73;;
37051;SDS011;22964;52.272;13.356;2022-09-09T16:45:51;2.85;;;0.70;;
37051;SDS011;22964;52.272;13.356;2022-09-09T16:48:16;1.45;;;0.63;;
37051;SDS011;22964;52.272;13.356;2022-09-09T16:50:42;1.58;;;0.68;;
37051;SDS011;22964;52.272;13.356;2022-09-09T16:53:07;2.28;;;0.60;;
37051;SDS011;22964;52.272;13.356;2022-09-09T16:55:38;1.92;;;0.77;;
37051;SDS011;22964;52.272;13.356;2022-09-09T16:58:05;1.02;;;0.60;;
37051;SDS011;22964;52.272;13.356;2022-09-09T17:00:30;1.08;;;0.50;;
37051;SDS011;22964;52.272;13.356;2022-09-09T17:02:56;1.30;;;0.60;;
37051;SDS011;22964;52.272;13.356;2022-09-09T17:05:21;2.60;;;0.70;;